Time;durP1;ratioP1;P1;durP2;ratioP2;P2;SDS_P1;SDS_P2;PMS_P1;PMS_P2;Temp;Humidity;BMP_temperature;BMP_pressure;BME280_temperature;BME280_humidity;BME280_pressure;Samples;Min_cycle;Max_cycle;Signal;HPM_P1;HPM_P2
2022/12/13 00:01:25;;;;;;;39.25;19.85;;;-4.00;99.90;;;;;;477840;246;27515;-65
2022/12/13 00:03:26;;;;;;;34.40;18.30;;;-4.00;99.90;;;;;;477839;246;27396;-66
2022/12/13 00:05:27;;;;;;;41.65;19.80;;;-4.00;99.90;;;;;;477841;246;27446;-66
2022/12/13 00:07:29;;;;;;;37.75;19.60;;;-4.10;99.90;;;;;;477819;246;27507;-65
2022/12/13 00:09:30;;;;;;;38.67;19.90;;;-4.10;99.90;;;;;;477804;246;27894;-65
2022/12/13 00:11:31;;;;;;;36.05;19.48;;;-4.10;99.90;;;;;;477842;246;28596;-65
2022/12/13 00:13:32;;;;;;;37.85;19.37;;;-4.10;99.90;;;;;;477841;246;27479;-66
2022/12/13 00:15:34;;;;;;;37.65;19.70;;;-4.10;99.90;;;;;;477815;246;27434;-67
2022/12/13 00:17:35;;;;;;;42.78;20.42;;;-4.10;99.90;;;;;;477800;246;27430;-65
2022/12/13 00:19:36;;;;;;;35.05;17.95;;;-4.10;99.90;;;;;;477830;246;27446;-66
2022/12/13 00:21:37;;;;;;;40.35;20.75;;;-4.10;99.90;;;;;;477794;246;27517;-65
2022/12/13 00:23:39;;;;;;;34.90;19.48;;;-4.10;99.90;;;;;;477812;246;27863;-65
2022/12/13 00:25:40;;;;;;;40.47;21.77;;;-4.20;99.90;;;;;;477806;246;27434;-66
2022/12/13 00:27:41;;;;;;;37.33;18.95;;;-4.20;99.90;;;;;;477806;246;27390;-65
2022/12/13 00:29:42;;;;;;;36.40;19.35;;;-4.20;99.90;;;;;;477826;246;27430;-66
2022/12/13 00:31:44;;;;;;;36.03;19.42;;;-4.20;99.90;;;;;;477807;246;27424;-66
2022/12/13 00:33:45;;;;;;;35.35;18.40;;;-4.20;99.90;;;;;;477824;246;27524;-65
2022/12/13 00:35:46;;;;;;;36.35;20.67;;;-4.20;99.90;;;;;;477791;246;27926;-66
2022/12/13 00:37:47;;;;;;;37.00;19.15;;;-4.20;99.90;;;;;;477807;246;27890;-65
2022/12/13 00:39:49;;;;;;;30.90;16.95;;;-4.20;99.90;;;;;;477810;246;27447;-66
2022/12/13 00:41:50;;;;;;;39.67;18.75;;;-4.20;99.90;;;;;;477825;246;27422;-65
2022/12/13 00:43:51;;;;;;;33.67;18.70;;;-4.20;99.90;;;;;;477815;246;27418;-65
2022/12/13 00:45:52;;;;;;;31.75;17.80;;;-4.30;99.90;;;;;;477816;246;27496;-66
2022/12/13 00:47:54;;;;;;;32.65;18.33;;;-4.30;99.90;;;;;;477828;246;27954;-66
2022/12/13 00:49:55;;;;;;;33.80;17.02;;;-4.30;99.90;;;;;;477805;246;28026;-66
2022/12/13 00:51:56;;;;;;;35.70;18.25;;;-4.20;99.90;;;;;;477826;246;27434;-69
2022/12/13 00:53:58;;;;;;;30.92;17.50;;;-4.30;99.90;;;;;;477854;246;27399;-66
2022/12/13 00:55:59;;;;;;;32.13;16.65;;;-4.30;99.90;;;;;;477858;246;27434;-66
2022/12/13 00:58:00;;;;;;;35.30;17.50;;;-4.30;99.90;;;;;;477834;246;27415;-65
2022/12/13 01:00:01;;;;;;;31.50;18.25;;;-4.30;99.90;;;;;;477805;246;27518;-65
2022/12/13 01:02:03;;;;;;;28.65;17.05;;;-4.30;99.90;;;;;;477820;246;27918;-68
2022/12/13 01:04:04;;;;;;;33.15;18.05;;;-4.30;99.90;;;;;;477810;246;27478;-66
2022/12/13 01:06:06;;;;;;;34.88;18.37;;;-4.30;99.90;;;;;;477814;246;27437;-67
2022/12/13 01:08:06;;;;;;;32.35;17.62;;;-4.40;99.90;;;;;;477762;246;27402;-66
2022/12/13 01:10:08;;;;;;;34.47;17.45;;;-4.40;99.90;;;;;;477797;246;27442;-65
2022/12/13 01:12:10;;;;;;;36.45;16.65;;;-4.40;99.90;;;;;;477818;246;27439;-68
2022/12/13 01:14:10;;;;;;;39.63;18.65;;;-4.40;99.90;;;;;;477805;246;27888;-66
2022/12/13 01:16:11;;;;;;;40.47;18.37;;;-4.40;99.90;;;;;;477837;246;27926;-66
2022/12/13 01:18:13;;;;;;;31.00;17.17;;;-4.40;99.90;;;;;;477807;246;27402;-65
2022/12/13 01:20:14;;;;;;;33.08;18.62;;;-4.40;99.90;;;;;;477816;246;27411;-66
2022/12/13 01:22:15;;;;;;;33.47;18.65;;;-4.40;99.90;;;;;;477807;246;27461;-68
2022/12/13 01:24:19;;;;;;;37.50;19.48;;;-4.40;99.90;;;;;;477813;246;27879;-65
2022/12/13 01:26:18;;;;;;;37.15;18.45;;;-4.40;99.90;;;;;;477661;248;27922;-66
2022/12/13 01:28:19;;;;;;;34.67;18.00;;;-4.30;99.90;;;;;;477802;246;28633;-66
2022/12/13 01:30:20;;;;;;;39.63;19.17;;;-4.40;99.90;;;;;;477813;246;27395;-66
2022/12/13 01:32:21;;;;;;;34.60;17.87;;;-4.40;99.90;;;;;;477820;246;27441;-66
2022/12/13 01:34:23;;;;;;;34.58;18.55;;;-4.40;99.90;;;;;;477818;246;27399;-65
2022/12/13 01:36:24;;;;;;;37.42;18.45;;;-4.40;99.90;;;;;;477856;246;27438;-66
2022/12/13 01:38:25;;;;;;;35.70;18.48;;;-4.40;99.90;;;;;;477844;246;27939;-68
2022/12/13 01:40:26;;;;;;;36.10;18.70;;;-4.40;99.90;;;;;;477857;246;27927;-66
2022/12/13 01:42:28;;;;;;;31.92;17.05;;;-4.50;99.90;;;;;;477832;246;27465;-66
2022/12/13 01:44:29;;;;;;;42.42;18.95;;;-4.50;99.90;;;;;;477818;246;27466;-65
2022/12/13 01:46:30;;;;;;;38.75;18.98;;;-4.50;99.90;;;;;;477813;246;27423;-67
2022/12/13 01:48:32;;;;;;;35.55;17.80;;;-4.50;99.90;;;;;;477820;246;27434;-68
2022/12/13 01:50:33;;;;;;;32.40;16.95;;;-4.40;99.90;;;;;;477846;246;27418;-65
2022/12/13 01:52:34;;;;;;;34.70;17.10;;;-4.40;99.90;;;;;;477841;247;28024;-65
2022/12/13 01:54:35;;;;;;;31.70;17.58;;;-4.50;99.90;;;;;;477825;246;27896;-65
2022/12/13 01:56:37;;;;;;;32.83;16.37;;;-4.50;99.90;;;;;;477801;246;27430;-66
2022/12/13 01:58:38;;;;;;;31.37;17.87;;;-4.50;99.90;;;;;;477828;247;27441;-68
2022/12/13 02:00:39;;;;;;;32.17;16.73;;;-4.50;99.90;;;;;;477789;246;27402;-65
2022/12/13 02:02:40;;;;;;;31.70;15.95;;;-4.50;99.90;;;;;;477794;246;27433;-66
2022/12/13 02:04:42;;;;;;;34.25;18.45;;;-4.50;99.90;;;;;;477800;246;27946;-65
2022/12/13 02:06:43;;;;;;;32.13;16.35;;;-4.50;99.90;;;;;;477781;246;27891;-65
2022/12/13 02:08:44;;;;;;;35.30;16.95;;;-4.50;99.90;;;;;;477812;246;27505;-68
2022/12/13 02:10:45;;;;;;;26.25;14.15;;;-4.50;99.90;;;;;;477787;246;27445;-66
2022/12/13 02:12:47;;;;;;;31.10;16.05;;;-4.50;99.90;;;;;;477847;246;27431;-66
2022/12/13 02:14:48;;;;;;;26.83;15.02;;;-4.50;99.90;;;;;;477852;246;27399;-66
2022/12/13 02:16:51;;;;;;;29.50;14.43;;;-4.50;99.90;;;;;;477815;246;27479;-66
2022/12/13 02:18:50;;;;;;;22.30;13.40;;;-4.50;99.90;;;;;;477716;248;27897;-67
2022/12/13 02:20:52;;;;;;;29.60;14.32;;;-4.60;99.90;;;;;;477820;246;27419;-65
2022/12/13 02:22:53;;;;;;;24.45;13.77;;;-4.50;99.90;;;;;;477845;246;27434;-66
2022/12/13 02:24:54;;;;;;;25.02;13.65;;;-4.60;99.90;;;;;;477819;246;27425;-65
2022/12/13 02:26:55;;;;;;;25.12;15.07;;;-4.60;99.90;;;;;;477840;246;27445;-65
2022/12/13 02:28:57;;;;;;;29.63;17.12;;;-4.60;99.90;;;;;;477824;246;27514;-66
2022/12/13 02:30:58;;;;;;;30.75;16.45;;;-4.70;99.90;;;;;;477831;246;27939;-65
2022/12/13 02:32:59;;;;;;;29.25;15.65;;;-4.80;99.90;;;;;;477825;246;27913;-66
2022/12/13 02:35:01;;;;;;;41.15;17.15;;;-4.80;99.90;;;;;;477830;246;27434;-65
2022/12/13 02:37:02;;;;;;;31.42;16.70;;;-4.80;99.90;;;;;;477838;246;27400;-65
2022/12/13 02:39:03;;;;;;;33.67;17.60;;;-4.70;99.90;;;;;;477843;246;27446;-65
2022/12/13 02:41:04;;;;;;;31.55;16.65;;;-4.70;99.90;;;;;;477818;247;27414;-67
2022/12/13 02:43:06;;;;;;;28.77;14.98;;;-4.70;99.90;;;;;;477828;246;27914;-66
2022/12/13 02:45:07;;;;;;;34.88;17.77;;;-4.60;99.90;;;;;;477837;246;27913;-68
2022/12/13 02:47:08;;;;;;;29.55;15.50;;;-4.60;99.90;;;;;;477851;246;27469;-65
2022/12/13 02:49:09;;;;;;;31.20;16.98;;;-4.60;99.90;;;;;;477833;246;27438;-66
2022/12/13 02:51:11;;;;;;;33.25;17.73;;;-4.60;99.90;;;;;;477839;246;27403;-65
2022/12/13 02:53:12;;;;;;;28.77;16.67;;;-4.60;99.90;;;;;;477811;246;27449;-65
2022/12/13 02:55:13;;;;;;;31.40;16.73;;;-4.60;99.90;;;;;;477845;246;27457;-68
2022/12/13 02:57:14;;;;;;;32.55;17.35;;;-4.50;99.90;;;;;;477816;246;27878;-65
2022/12/13 02:59:16;;;;;;;37.83;17.60;;;-4.60;99.90;;;;;;477826;246;27444;-66
2022/12/13 03:01:17;;;;;;;30.35;16.98;;;-4.60;99.90;;;;;;477813;246;27406;-66
2022/12/13 03:03:18;;;;;;;33.28;16.42;;;-4.60;99.90;;;;;;477796;246;27467;-65
2022/12/13 03:07:39;;;;;;;30.83;16.35;;;-4.60;99.90;;;;;;477810;248;27411;-66
2022/12/13 03:09:40;;;;;;;32.28;16.25;;;-4.70;99.90;;;;;;477811;246;27430;-66
2022/12/13 03:14:01;;;;;;;31.40;16.58;;;-4.70;99.90;;;;;;477826;248;27414;-65
2022/12/13 03:16:02;;;;;;;30.40;15.90;;;-4.70;99.90;;;;;;477834;246;27426;-66
2022/12/13 03:18:04;;;;;;;35.92;18.00;;;-4.70;99.90;;;;;;477855;246;27501;-65
2022/12/13 03:20:05;;;;;;;29.12;15.73;;;-4.70;99.90;;;;;;477823;248;27747;-65
2022/12/13 03:22:06;;;;;;;33.40;17.10;;;-4.80;99.90;;;;;;477835;246;27959;-66
2022/12/13 03:24:07;;;;;;;32.75;17.90;;;-4.80;99.90;;;;;;477837;246;29023;-65
2022/12/13 03:26:09;;;;;;;31.33;16.92;;;-4.70;99.90;;;;;;477809;246;27567;-65
2022/12/13 03:28:11;;;;;;;34.85;17.40;;;-4.70;99.90;;;;;;477779;246;27518;-68
2022/12/13 03:30:11;;;;;;;33.13;17.52;;;-4.80;99.90;;;;;;477676;246;27486;-65
2022/12/13 03:32:12;;;;;;;33.63;16.98;;;-4.80;99.90;;;;;;477664;246;27449;-66
2022/12/13 03:34:14;;;;;;;33.22;17.50;;;-4.80;99.90;;;;;;477621;246;27498;-65
2022/12/13 03:36:15;;;;;;;35.70;18.10;;;-4.80;99.90;;;;;;477747;246;28345;-65
2022/12/13 03:38:16;;;;;;;35.53;17.33;;;-4.80;99.90;;;;;;477853;246;27565;-68
2022/12/13 03:40:17;;;;;;;32.88;17.90;;;-4.90;99.90;;;;;;477849;246;27513;-65
2022/12/13 03:42:19;;;;;;;33.63;15.70;;;-4.90;99.90;;;;;;477818;246;27441;-65
2022/12/13 03:44:20;;;;;;;39.22;17.75;;;-4.90;99.90;;;;;;477837;246;27411;-65
2022/12/13 03:46:21;;;;;;;35.10;17.17;;;-4.90;99.90;;;;;;477839;246;27411;-66
2022/12/13 03:48:23;;;;;;;36.13;18.52;;;-4.90;99.90;;;;;;477820;246;27907;-67
2022/12/13 03:50:24;;;;;;;31.67;17.27;;;-4.90;99.90;;;;;;477848;246;28949;-65
2022/12/13 03:52:25;;;;;;;27.55;16.17;;;-4.90;99.90;;;;;;477823;246;27441;-65
2022/12/13 03:54:26;;;;;;;41.08;20.30;;;-4.90;99.90;;;;;;477815;246;27449;-65
2022/12/13 03:56:28;;;;;;;33.42;17.10;;;-4.90;99.90;;;;;;477822;246;27403;-66
2022/12/13 03:58:29;;;;;;;34.47;17.27;;;-4.90;99.90;;;;;;477813;246;27490;-66
2022/12/13 04:00:30;;;;;;;33.03;16.27;;;-4.90;99.90;;;;;;477846;246;27867;-65
2022/12/13 04:02:31;;;;;;;33.10;16.80;;;-5.00;99.90;;;;;;477798;246;29021;-66
2022/12/13 04:04:33;;;;;;;35.80;18.60;;;-5.00;99.90;;;;;;477833;246;27502;-68
2022/12/13 04:06:34;;;;;;;33.30;16.87;;;-5.00;99.90;;;;;;477843;246;27402;-66
2022/12/13 04:08:35;;;;;;;34.80;17.65;;;-5.00;99.90;;;;;;477838;246;27464;-66
2022/12/13 04:10:36;;;;;;;35.72;17.83;;;-4.90;99.90;;;;;;477806;246;27483;-65
2022/12/13 04:14:57;;;;;;;41.97;18.67;;;-5.00;99.90;;;;;;477814;248;27518;-66
2022/12/13 04:16:58;;;;;;;31.10;17.58;;;-4.90;99.90;;;;;;477800;246;27958;-65
2022/12/13 04:19:00;;;;;;;36.17;17.27;;;-5.00;99.90;;;;;;477805;246;27430;-66
2022/12/13 04:21:01;;;;;;;36.28;17.15;;;-4.90;99.90;;;;;;477840;247;27446;-68
2022/12/13 04:23:02;;;;;;;36.28;16.98;;;-5.00;99.90;;;;;;477844;246;27483;-65
2022/12/13 04:25:03;;;;;;;35.78;15.50;;;-5.00;99.90;;;;;;477864;246;27450;-66
2022/12/13 04:27:05;;;;;;;29.63;17.02;;;-5.00;99.90;;;;;;477802;247;27505;-66
2022/12/13 04:29:06;;;;;;;34.33;17.65;;;-5.00;99.90;;;;;;477803;246;27953;-66
2022/12/13 04:31:07;;;;;;;32.78;16.17;;;-5.00;99.90;;;;;;477847;246;28000;-68
2022/12/13 04:33:09;;;;;;;27.92;14.70;;;-5.00;99.90;;;;;;477804;246;27501;-65
2022/12/13 04:35:10;;;;;;;31.05;16.35;;;-5.00;99.90;;;;;;477841;246;27427;-67
2022/12/13 04:37:11;;;;;;;31.45;15.40;;;-5.00;99.90;;;;;;477835;246;27518;-65
2022/12/13 04:39:12;;;;;;;33.47;17.87;;;-5.00;99.90;;;;;;477827;246;27415;-65
2022/12/13 04:41:14;;;;;;;34.25;17.30;;;-5.00;99.90;;;;;;477812;246;27890;-67
2022/12/13 04:43:15;;;;;;;36.78;18.10;;;-5.00;99.90;;;;;;477815;246;28017;-65
2022/12/13 04:45:16;;;;;;;34.83;17.00;;;-5.00;99.90;;;;;;477816;246;27526;-65
2022/12/13 04:47:17;;;;;;;31.23;15.50;;;-5.00;99.90;;;;;;477780;246;27481;-65
2022/12/13 04:49:19;;;;;;;34.80;17.55;;;-5.10;99.90;;;;;;477817;247;27507;-66
2022/12/13 04:51:20;;;;;;;34.35;15.73;;;-5.10;99.90;;;;;;477792;246;27542;-66
2022/12/13 04:53:21;;;;;;;35.72;16.87;;;-5.10;99.90;;;;;;477799;246;27401;-65
2022/12/13 04:55:22;;;;;;;30.48;14.90;;;-5.10;99.90;;;;;;477822;246;28014;-65
2022/12/13 04:57:24;;;;;;;32.03;16.73;;;-5.10;99.90;;;;;;477874;246;27442;-65
2022/12/13 04:59:25;;;;;;;29.33;15.85;;;-5.00;99.90;;;;;;477889;246;27395;-66
2022/12/13 05:01:26;;;;;;;32.35;15.10;;;-5.00;99.90;;;;;;477879;246;27442;-67
2022/12/13 05:03:27;;;;;;;33.05;17.65;;;-5.00;99.90;;;;;;477875;246;27431;-66
2022/12/13 05:05:29;;;;;;;29.37;16.98;;;-4.90;99.90;;;;;;477858;246;27446;-66
2022/12/13 05:07:30;;;;;;;30.48;17.27;;;-4.90;99.90;;;;;;477870;246;28099;-65
2022/12/13 05:09:31;;;;;;;30.12;16.37;;;-4.90;99.90;;;;;;477856;246;27969;-65
2022/12/13 05:11:32;;;;;;;31.15;16.30;;;-4.90;99.90;;;;;;477844;246;27438;-66
2022/12/13 05:13:34;;;;;;;28.95;14.65;;;-4.90;99.90;;;;;;477834;246;27447;-65
2022/12/13 05:15:35;;;;;;;24.75;14.05;;;-4.90;99.90;;;;;;477819;246;27580;-65
2022/12/13 05:17:36;;;;;;;25.20;15.30;;;-4.90;99.90;;;;;;477811;247;27462;-68
2022/12/13 05:19:38;;;;;;;26.83;14.70;;;-4.90;99.90;;;;;;477825;246;27963;-65
2022/12/13 05:21:39;;;;;;;29.00;15.88;;;-4.90;99.90;;;;;;477821;246;27905;-66
2022/12/13 05:23:40;;;;;;;28.45;15.73;;;-5.00;99.90;;;;;;477804;246;27505;-65
2022/12/13 05:25:41;;;;;;;29.25;15.48;;;-5.00;99.90;;;;;;477810;246;27442;-65
2022/12/13 05:27:43;;;;;;;28.00;15.85;;;-4.90;99.90;;;;;;477832;246;27435;-68
2022/12/13 05:29:44;;;;;;;22.95;13.62;;;-4.90;99.90;;;;;;477831;246;27418;-66
2022/12/13 05:31:45;;;;;;;29.05;14.80;;;-4.80;99.90;;;;;;477820;246;27568;-67
2022/12/13 05:33:46;;;;;;;21.87;13.35;;;-4.90;99.90;;;;;;477829;247;27917;-66
2022/12/13 05:35:48;;;;;;;28.23;15.68;;;-4.90;99.90;;;;;;477834;246;27422;-66
2022/12/13 05:37:49;;;;;;;27.27;14.50;;;-5.00;99.90;;;;;;477851;246;27460;-68
2022/12/13 05:39:50;;;;;;;25.15;13.50;;;-5.00;99.90;;;;;;477816;246;27408;-65
2022/12/13 05:41:51;;;;;;;28.70;15.38;;;-5.00;99.90;;;;;;477816;246;27451;-66
2022/12/13 05:43:53;;;;;;;26.55;14.50;;;-5.00;99.90;;;;;;477834;247;27410;-66
2022/12/13 05:45:54;;;;;;;24.27;13.43;;;-5.00;99.90;;;;;;477786;247;27903;-66
2022/12/13 05:47:55;;;;;;;31.58;14.77;;;-5.10;99.90;;;;;;477817;247;27934;-69
2022/12/13 05:49:56;;;;;;;27.92;14.50;;;-5.00;99.90;;;;;;477822;246;27505;-65
2022/12/13 05:51:58;;;;;;;25.90;14.30;;;-5.00;99.90;;;;;;477808;247;27442;-68
2022/12/13 05:53:59;;;;;;;28.62;15.32;;;-5.00;99.90;;;;;;477805;246;27434;-65
2022/12/13 05:56:00;;;;;;;26.37;14.50;;;-5.00;99.90;;;;;;477789;246;27439;-66
2022/12/13 05:58:01;;;;;;;33.75;16.10;;;-4.90;99.90;;;;;;477822;246;27894;-68
2022/12/13 06:00:03;;;;;;;28.48;15.63;;;-4.90;99.90;;;;;;477797;246;29058;-66
2022/12/13 06:02:04;;;;;;;33.05;16.20;;;-4.90;99.90;;;;;;477816;246;27431;-66
2022/12/13 06:04:05;;;;;;;27.77;15.38;;;-4.90;99.90;;;;;;477833;246;27395;-65
2022/12/13 06:06:07;;;;;;;20.20;12.93;;;-5.00;99.90;;;;;;477790;246;27545;-66
2022/12/13 06:08:08;;;;;;;28.45;14.82;;;-5.00;99.90;;;;;;477739;248;27499;-67
2022/12/13 06:10:09;;;;;;;29.23;16.67;;;-4.90;99.90;;;;;;477812;246;27490;-65
2022/12/13 06:12:10;;;;;;;28.98;15.10;;;-4.90;99.90;;;;;;477813;246;28005;-65
2022/12/13 06:14:12;;;;;;;30.52;15.80;;;-4.90;99.90;;;;;;477799;247;27863;-65
2022/12/13 06:16:13;;;;;;;30.20;16.05;;;-4.90;99.90;;;;;;477811;246;27954;-65
2022/12/13 06:18:14;;;;;;;28.55;15.93;;;-4.90;99.90;;;;;;477835;246;28013;-67
2022/12/13 06:20:15;;;;;;;30.85;14.55;;;-4.90;99.90;;;;;;477837;246;27521;-66
2022/12/13 06:22:17;;;;;;;28.02;15.68;;;-4.90;99.90;;;;;;477799;246;27464;-66
2022/12/13 06:24:18;;;;;;;27.30;16.27;;;-4.90;99.90;;;;;;477841;246;27434;-65
2022/12/13 06:26:19;;;;;;;31.87;16.80;;;-4.90;99.90;;;;;;477836;248;27498;-66
2022/12/13 06:28:20;;;;;;;31.70;15.50;;;-4.90;99.90;;;;;;477856;246;27474;-65
2022/12/13 06:30:22;;;;;;;31.12;17.20;;;-4.80;99.90;;;;;;477833;246;27863;-65
2022/12/13 06:32:23;;;;;;;30.60;16.92;;;-4.80;99.90;;;;;;477822;247;27502;-66
2022/12/13 06:34:24;;;;;;;33.45;18.48;;;-4.80;99.90;;;;;;477851;247;27449;-68
2022/12/13 06:36:25;;;;;;;32.67;17.52;;;-4.80;99.90;;;;;;477843;246;27410;-65
2022/12/13 06:38:27;;;;;;;30.08;16.60;;;-4.80;99.90;;;;;;477845;246;27462;-66
2022/12/13 06:40:29;;;;;;;37.05;19.40;;;-4.80;99.90;;;;;;477866;246;27402;-66
2022/12/13 06:42:30;;;;;;;33.22;17.55;;;-4.80;99.90;;;;;;477828;246;27960;-66
2022/12/13 06:44:30;;;;;;;34.60;16.80;;;-4.80;99.90;;;;;;477795;248;29065;-67
2022/12/13 06:46:32;;;;;;;34.38;17.85;;;-4.80;99.90;;;;;;477825;246;27403;-66
2022/12/13 06:48:33;;;;;;;36.97;19.92;;;-4.80;99.90;;;;;;477845;246;27438;-66
2022/12/13 06:50:35;;;;;;;33.85;18.75;;;-4.90;99.90;;;;;;477846;246;27547;-65
2022/12/13 06:52:36;;;;;;;33.40;17.80;;;-4.80;99.90;;;;;;477803;246;28558;-65
2022/12/13 06:54:37;;;;;;;31.27;17.75;;;-4.80;99.90;;;;;;477829;246;27914;-66
2022/12/13 06:56:38;;;;;;;34.95;16.92;;;-4.80;99.90;;;;;;477825;246;27866;-65
2022/12/13 06:58:39;;;;;;;32.30;17.12;;;-4.80;99.90;;;;;;477809;246;27426;-66
2022/12/13 07:00:41;;;;;;;34.83;18.23;;;-4.80;99.90;;;;;;477827;246;27390;-65
2022/12/13 07:02:42;;;;;;;32.42;16.92;;;-4.80;99.90;;;;;;477814;246;27426;-65
2022/12/13 07:04:43;;;;;;;31.12;16.62;;;-4.90;99.90;;;;;;477829;246;27450;-67
2022/12/13 07:06:44;;;;;;;29.35;16.45;;;-4.80;99.90;;;;;;477824;246;27493;-65
2022/12/13 07:08:46;;;;;;;30.90;16.90;;;-4.80;99.90;;;;;;477829;246;27920;-65
2022/12/13 07:10:47;;;;;;;33.65;16.37;;;-4.80;99.90;;;;;;477837;246;27378;-66
2022/12/13 07:12:48;;;;;;;30.30;15.60;;;-4.80;99.90;;;;;;477846;246;27407;-65
2022/12/13 07:14:49;;;;;;;28.50;15.32;;;-4.70;99.90;;;;;;477832;246;27541;-68
2022/12/13 07:16:51;;;;;;;27.20;15.70;;;-4.70;99.90;;;;;;477844;246;27493;-65
2022/12/13 07:18:52;;;;;;;26.40;14.70;;;-4.70;99.90;;;;;;477841;246;27438;-65
2022/12/13 07:20:53;;;;;;;29.00;15.63;;;-4.70;99.90;;;;;;477860;246;27536;-69
2022/12/13 07:22:55;;;;;;;22.80;14.55;;;-4.80;99.90;;;;;;477824;246;27938;-66
2022/12/13 07:24:56;;;;;;;29.48;15.00;;;-4.80;99.90;;;;;;477837;246;27918;-67
2022/12/13 07:26:57;;;;;;;30.40;16.15;;;-4.80;99.90;;;;;;477829;246;27434;-65
2022/12/13 07:28:58;;;;;;;26.70;15.10;;;-4.80;99.90;;;;;;477815;246;27405;-66
2022/12/13 07:31:00;;;;;;;28.15;16.05;;;-4.80;99.90;;;;;;477831;246;27462;-66
2022/12/13 07:33:01;;;;;;;27.90;15.90;;;-4.80;99.90;;;;;;477808;246;27407;-66
2022/12/13 07:35:02;;;;;;;25.27;14.35;;;-4.80;99.90;;;;;;477830;246;27902;-66
2022/12/13 07:37:04;;;;;;;21.85;14.13;;;-4.80;99.90;;;;;;477826;246;27999;-66
2022/12/13 07:39:05;;;;;;;28.00;15.40;;;-4.80;99.90;;;;;;477820;246;27394;-66
2022/12/13 07:41:06;;;;;;;27.25;15.25;;;-4.80;99.90;;;;;;477820;246;27498;-66
2022/12/13 07:43:07;;;;;;;22.48;13.50;;;-4.90;99.90;;;;;;477810;246;27457;-65
2022/12/13 07:45:09;;;;;;;27.75;15.40;;;-4.80;99.90;;;;;;477810;246;27447;-65
2022/12/13 07:47:10;;;;;;;28.05;15.55;;;-4.90;99.90;;;;;;477812;246;28462;-68
2022/12/13 07:49:11;;;;;;;27.95;15.98;;;-4.90;99.90;;;;;;477839;246;29052;-65
2022/12/13 07:51:13;;;;;;;30.80;18.27;;;-4.90;99.90;;;;;;477834;246;27433;-66
2022/12/13 07:53:14;;;;;;;32.72;16.20;;;-5.00;99.90;;;;;;477844;246;27447;-66
2022/12/13 07:55:16;;;;;;;25.95;15.52;;;-5.00;99.90;;;;;;477814;246;27459;-65
2022/12/13 07:57:16;;;;;;;25.75;14.40;;;-5.00;99.90;;;;;;477787;247;27430;-68
2022/12/13 07:59:17;;;;;;;27.10;14.45;;;-5.00;99.90;;;;;;477826;246;27454;-66
2022/12/13 08:01:19;;;;;;;28.62;14.98;;;-4.90;99.90;;;;;;477829;246;27910;-66
2022/12/13 08:03:20;;;;;;;27.25;13.60;;;-5.00;99.90;;;;;;477825;246;27949;-66
2022/12/13 08:05:21;;;;;;;29.80;14.50;;;-5.00;99.90;;;;;;477855;246;27433;-66
2022/12/13 08:07:23;;;;;;;29.00;14.70;;;-4.90;99.90;;;;;;477854;246;27521;-68
2022/12/13 08:09:24;;;;;;;26.45;13.73;;;-4.90;99.90;;;;;;477833;246;27434;-66
2022/12/13 08:11:25;;;;;;;26.45;13.02;;;-4.80;99.90;;;;;;477795;246;27461;-65
2022/12/13 08:20:28;;;;;;;22.55;12.35;;;-4.60;99.90;;;;;;476792;249;27432;-67
2022/12/13 08:22:30;;;;;;;22.33;12.90;;;-4.60;99.90;;;;;;476908;248;27483;-67
2022/12/13 08:24:31;;;;;;;26.73;13.50;;;-4.60;99.90;;;;;;476884;248;27937;-66
2022/12/13 08:26:32;;;;;;;23.52;11.63;;;-4.50;99.90;;;;;;476911;248;27412;-68
2022/12/13 08:28:33;;;;;;;19.95;12.18;;;-4.50;99.90;;;;;;476907;248;27464;-66
2022/12/13 08:30:35;;;;;;;19.05;11.38;;;-4.50;99.90;;;;;;476877;248;27538;-67
2022/12/13 08:32:36;;;;;;;23.67;12.40;;;-4.50;99.90;;;;;;476917;248;27633;-67
2022/12/13 08:34:37;;;;;;;23.08;13.85;;;-4.40;99.90;;;;;;476928;248;27532;-67
2022/12/13 08:36:38;;;;;;;23.50;13.57;;;-4.40;99.90;;;;;;476878;248;27965;-67
2022/12/13 08:38:40;;;;;;;24.15;14.23;;;-4.30;99.90;;;;;;476899;249;29122;-67
2022/12/13 08:40:41;;;;;;;24.95;14.50;;;-4.20;99.90;;;;;;476893;248;27627;-67
2022/12/13 08:42:42;;;;;;;24.73;14.48;;;-4.10;99.90;;;;;;476914;249;27530;-69
2022/12/13 08:44:43;;;;;;;26.75;14.50;;;-4.10;99.90;;;;;;476883;248;27488;-67
2022/12/13 08:46:45;;;;;;;24.77;13.02;;;-4.00;99.90;;;;;;476884;248;27603;-67
2022/12/13 08:48:46;;;;;;;27.87;14.00;;;-4.00;99.90;;;;;;476897;248;27916;-67
2022/12/13 08:50:47;;;;;;;23.87;13.82;;;-4.00;99.90;;;;;;476893;248;28093;-66
2022/12/13 08:52:49;;;;;;;21.25;12.45;;;-4.00;99.90;;;;;;476928;248;27511;-68
2022/12/13 08:54:51;;;;;;;23.12;13.35;;;;;;;;;;476885;248;27472;-67
2022/12/13 08:56:52;;;;;;;21.35;13.20;;;-4.00;99.90;;;;;;476887;249;27709;-66
2022/12/13 08:58:53;;;;;;;27.13;13.93;;;-3.90;99.90;;;;;;476905;248;27548;-67
2022/12/13 09:00:55;;;;;;;20.23;12.65;;;-3.90;99.90;;;;;;476923;248;27551;-67
2022/12/13 09:02:56;;;;;;;21.15;13.15;;;-3.90;99.90;;;;;;476770;248;27526;-67
2022/12/13 09:04:57;;;;;;;22.15;12.65;;;-3.90;99.90;;;;;;476930;248;27629;-67
2022/12/13 09:07:00;;;;;;;24.30;13.90;;;;;;;;;;476899;248;27832;-66
2022/12/13 09:09:01;;;;;;;23.87;13.95;;;-3.90;99.90;;;;;;476945;249;26871;-67
2022/12/13 09:11:02;;;;;;;19.58;12.15;;;-3.80;99.90;;;;;;476912;248;27521;-67
2022/12/13 09:13:03;;;;;;;29.67;14.70;;;-3.80;99.90;;;;;;476870;248;27610;-67
2022/12/13 09:15:05;;;;;;;21.42;13.27;;;-3.80;99.90;;;;;;476908;248;28080;-68
2022/12/13 09:17:06;;;;;;;22.42;13.98;;;-3.80;99.90;;;;;;476921;248;27938;-67
2022/12/13 09:19:09;;;;;;;23.83;13.73;;;;;;;;;;476899;248;27532;-67
2022/12/13 09:21:11;;;;;;;26.90;13.90;;;;;;;;;;476887;249;27394;-69
2022/12/13 09:23:13;;;;;;;24.33;14.35;;;;;;;;;;476939;248;26727;-67
2022/12/13 09:25:15;;;;;;;22.92;13.90;;;-3.80;99.90;;;;;;476862;249;27231;-67
2022/12/13 09:27:16;;;;;;;24.10;15.25;;;-3.80;99.90;;;;;;477676;247;27694;-67
2022/12/13 09:29:17;;;;;;;22.15;13.10;;;-3.80;99.90;;;;;;474565;249;36325;-67
2022/12/13 09:31:20;;;;;;;27.55;15.93;;;;;;;;;;476921;248;27496;-67
2022/12/13 09:33:22;;;;;;;27.50;14.87;;;;;;;;;;478300;247;26640;-66
2022/12/13 09:35:24;;;;;;;27.95;15.07;;;;;;;;;;476876;249;28095;-66
2022/12/13 09:37:26;;;;;;;27.13;16.15;;;-3.70;99.90;;;;;;476907;249;26674;-68
2022/12/13 09:39:28;;;;;;;29.50;15.32;;;;;;;;;;476908;248;27447;-66
2022/12/13 09:41:29;;;;;;;20.90;13.62;;;-3.80;99.90;;;;;;477131;247;27364;-67
2022/12/13 09:43:31;;;;;;;23.80;14.18;;;-3.70;99.90;;;;;;476868;249;27551;-66
2022/12/13 09:45:34;;;;;;;25.75;15.15;;;;;;;;;;476916;249;27519;-66
2022/12/13 09:47:36;;;;;;;25.08;15.00;;;;;;;;;;476874;249;27173;-66
2022/12/13 09:49:38;;;;;;;24.92;13.82;;;;;;;;;;477217;247;26659;-68
2022/12/13 09:51:39;;;;;;;22.40;13.23;;;-3.60;99.90;;;;;;478469;247;26706;-67
2022/12/13 09:53:40;;;;;;;22.50;14.40;;;-3.50;99.90;;;;;;476899;249;27520;-67
2022/12/13 09:55:43;;;;;;;21.10;12.95;;;;;;;;;;476898;248;27407;-66
2022/12/13 09:57:45;;;;;;;20.62;13.10;;;;;;;;;;476877;249;26852;-66
2022/12/13 09:59:49;;;;;;;23.35;14.40;;;;;;;;;;476891;249;27759;-67
2022/12/13 10:01:50;;;;;;;19.58;12.85;;;;;;;;;;476848;249;27206;-66
2022/12/13 10:03:53;;;;;;;20.75;13.70;;;;;;;;;;476892;249;26806;-66
2022/12/13 10:05:55;;;;;;;22.60;14.40;;;;;;;;;;476913;248;27167;-66
2022/12/13 10:07:56;;;;;;;21.70;13.25;;;-3.50;99.90;;;;;;479925;247;26616;-67
2022/12/13 10:09:58;;;;;;;20.75;13.05;;;-3.50;99.90;;;;;;477064;248;27527;-67
2022/12/13 10:12:00;;;;;;;20.83;12.73;;;;;;;;;;476927;249;27447;-67
2022/12/13 10:14:01;;;;;;;20.98;13.65;;;-3.50;99.90;;;;;;478375;247;26641;-67
2022/12/13 10:16:04;;;;;;;21.65;13.25;;;;;;;;;;476940;249;27455;-66
2022/12/13 10:18:06;;;;;;;18.92;12.65;;;;;;;;;;476950;249;26654;-67
2022/12/13 10:20:08;;;;;;;17.45;11.77;;;-3.50;99.90;;;;;;477000;247;26861;-67
2022/12/13 10:22:10;;;;;;;20.10;12.50;;;;;;;;;;476898;249;27092;-68
2022/12/13 10:24:11;;;;;;;22.75;11.73;;;-3.40;99.90;;;;;;477104;247;27070;-67
2022/12/13 10:26:14;;;;;;;19.77;13.35;;;;;;;;;;476890;249;27571;-66
2022/12/13 10:28:16;;;;;;;21.48;12.50;;;;;;;;;;476937;248;27790;-66
2022/12/13 10:30:23;;;;;;;20.05;12.65;;;;;;;;;;476921;249;26954;-67
2022/12/13 10:32:24;;;;;;;20.73;12.85;;;;;;;;;;476782;249;26614;-66
2022/12/13 10:34:27;;;;;;;19.02;12.15;;;;;;;;;;478364;247;26701;-67
2022/12/13 10:36:29;;;;;;;19.25;12.18;;;;;;;;;;476916;249;27287;-66